This is the latest recevied weather packets stored in our database for station/object OE3TEC-15. If no packets are shown the sender has not sent any weather packets the latest 10 day(s).
| Time | Temp. | Humidity | Pressure | Rain* | Wind** | Luminosity | Snow |
|---|---|---|---|---|---|---|---|
| 1777146035 | 14.44° C | 45% | 1014.4 hPa | 0 mm | - | 0 W/m² | - |
| 1777145428 | 14.44° C | 46% | 1014.7 hPa | 0 mm | - | 0 W/m² | - |
| 1777144820 | 13.89° C | 49% | 1014.6 hPa | 0 mm | - | 0 W/m² | - |
| 1777144213 | 12.78° C | 53% | 1014.7 hPa | 0 mm | - | 0 W/m² | - |
| 1777143607 | 13.89° C | 51% | 1014.6 hPa | 0 mm | - | 0 W/m² | - |
| 1777143007 | 13.89° C | 49% | 1014.4 hPa | 0 mm | - | 0 W/m² | - |
| 1777142401 | 16.11° C | 45% | 1014.1 hPa | 0 mm | - | 0 W/m² | - |
| 1777141793 | 16.67° C | 44% | 1014 hPa | 0 mm | - | 0 W/m² | - |
| 1777141186 | 16.67° C | 43% | 1013.9 hPa | 0 mm | - | 0 W/m² | - |
| 1777140578 | 18.89° C | 38% | 1013.9 hPa | 0 mm | - | 1 W/m² | - |
| 1777139971 | 18.33° C | 37% | 1013.6 hPa | 0 mm | - | 3 W/m² | - |
| 1777139364 | 18.33° C | 38% | 1013.4 hPa | 0 mm | - | 6 W/m² | - |
| 1777138757 | 20° C | 35% | 1013.4 hPa | 0 mm | - | 10 W/m² | - |
| 1777138150 | 20.56° C | 33% | 1013.2 hPa | 0 mm | - | 14 W/m² | - |
| 1777137542 | 21.11° C | 31% | 1013.4 hPa | 0 mm | - | 19 W/m² | - |
| 1777136935 | 21.67° C | 31% | 1013.2 hPa | 0 mm | - | 23 W/m² | - |
| 1777136328 | 22.22° C | 29% | 1013.1 hPa | 0 mm | - | 28 W/m² | - |
| 1777135721 | 22.78° C | 29% | 1013.1 hPa | 0 mm | - | 32 W/m² | - |
| 1777135113 | 22.78° C | 29% | 1013.1 hPa | 0 mm | - | 35 W/m² | - |
| 1777134505 | 23.89° C | 28% | 1013.1 hPa | 0 mm | - | 38 W/m² | - |
| 1777133898 | 24.44° C | 26% | 1013.1 hPa | 0 mm | - | 45 W/m² | - |
| 1777133291 | 24.44° C | 25% | 1013.3 hPa | 0 mm | - | 69 W/m² | - |
| 1777132684 | 24.44° C | 25% | 1013.3 hPa | 0 mm | - | 101 W/m² | - |
| 1777132076 | 25° C | 25% | 1013.2 hPa | 0 mm | - | 122 W/m² | - |
| 1777131468 | 25° C | 24% | 1013.4 hPa | 0 mm | - | 142 W/m² | - |
* Rain latest hour (hover to see other rain measurements)
** Current wind speed in m/s (hover to see current wind gust speed)